x

East Superior -70 Nm Ne Marquette, Mi (45004) Wave Buoy

11:50pm - Wed 28th Sep 2016 All times are CDT. -5 hours from GMT.

  • Sig Wave height 2.0ft
  • Swell Direction
  • Peak Period 4s
  • Average Period 4s
  • Wind
    13mph, 16mph gusts
  • Sea Temp 59°f
  • Air Temp 58°f
  • Sea Pressure 1027.4mb
  • East Superior -70 Nm Ne Marquette, Mi
  • East Superior -70 Nm Ne Marquette, Mi

More Historic Weather Station data

Upgrade to MSW Pro to gain access to the past 30 days of data for over 8000 Wavebouys and Weather Stations around the globe.

Join Pro

Comparision Forecast

View Surf forecast
   
Wed 09/28 11:50pm 2ft 4s 4s 13 16 mph 1027.4mb 59f 58f
10:50pm 2ft 4s 4s 11 13 mph 1027.1mb 59f 59f
9:50pm 2.5ft 4s 4s 13 16 mph 1026.5mb 59f 59f
8:50pm 2.5ft 4s 4s 16 18 mph 1026.2mb 59f 58f
7:50pm 2.5ft 5s 4s 13 18 mph 1025.5mb 59f 58f
6:50pm 2.5ft 4s 4s 13 16 mph 1024.7mb 59f 58f
5:50pm 2ft 5s 4s 13 16 mph 1024.1mb 59f 58f
4:50pm 2ft 5s 4s 11 13 mph 1023.6mb 59f 58f
3:50pm 2.5ft 5s 4s 11 13 mph 1022.9mb 59f 57f
2:50pm 2.5ft 5s 4s 11 13 mph 1022.3mb 59f 57f
1:50pm 3.5ft 5s 4s 13 16 mph 1021.6mb 59f 57f
12:50pm 3.5ft 5s 4s 16 18 mph 1021.1mb 59f 57f
11:50am 3.5ft 5s 4s 16 18 mph 1020.3mb 58f 57f
10:50am 3.5ft 5s 4s 16 18 mph 1019.5mb 58f 57f
9:50am 4ft 5s 4s 18 20 mph 1018.7mb 58f 56f
8:50am 4.5ft 5s 4s 20 22 mph 1017.7mb 58f 56f
7:50am 4.5ft 5s 4s 20 25 mph 1016.6mb 58f 56f
6:50am 3.5ft 5s 4s 20 22 mph 1015.3mb 58f 57f
5:50am 3.5ft 5s 4s 20 22 mph 1014mb 58f 57f
4:50am 3.5ft 5s 4s 16 20 mph 1012.9mb 58f 57f
3:50am 3ft 5s 4s 20 22 mph 1011.7mb 58f 57f
2:50am 3ft 5s 4s 16 18 mph 1010.7mb 58f 57f
1:50am 3.5ft 5s 4s 18 22 mph 1009.9mb 58f 57f
12:50am 3.5ft 5s 4s 18 20 mph 1008.6mb 58f 56f
Tue 09/27 11:50pm 4ft 5s 4s 18 22 mph 1007.5mb 58f 57f
10:50pm 4.5ft 5s 4s 20 25 mph 1006.4mb 58f 57f
9:50pm 3ft 4s 4s 22 27 mph 1005.3mb 58f 57f
8:50pm 2.5ft 5s 4s 16 20 mph 1004.1mb 58f 57f
7:50pm 2.5ft 5s 4s 13 16 mph 1003.2mb 58f 58f
6:50pm 2.5ft 5s 4s 4 7 mph 1002.5mb 59f 58f
5:50pm 2.5ft 6s 5s 4 7 mph 1001.5mb 59f 58f
4:50pm 3ft 6s 5s 7 9 mph 1000.4mb 59f 57f
3:50pm 3.5ft 5s 5s 7 9 mph 999.7mb 58f 57f
2:50pm 3.5ft 6s 5s 9
mph
999mb 58f 57f
1:50pm 4ft 6s 5s 11
mph
998.3mb 58f 56f
12:50pm 4.5ft 6s 5s 16 20 mph 997.4mb 58f 56f
11:50am 4.5ft 6s 5s 18 20 mph 996.9mb 58f 56f
10:50am 4.5ft 6s 5s 18 20 mph 996.4mb 58f 55f
9:50am 4.5ft 6s 5s 18 22 mph 996.2mb 58f 55f
8:50am 5ft 6s 5s 18 22 mph 995.7mb 58f 55f
7:50am 5.5ft 6s 5s 20 22 mph 995.3mb 58f 54f
6:50am 6ft 7s 5s 18 22 mph 995.2mb 58f 54f
5:50am 6.5ft 7s 5s 22 27 mph 995mb 58f 54f
4:50am 7ft 7s 5s 22 29 mph 994.9mb 58f 54f
3:50am 8ft 7s 6s 25 29 mph 994.9mb 58f 54f
2:50am 8.5ft 7s 6s 25 29 mph 995.1mb 58f 55f
1:50am 9ft 8s 6s 22 27 mph 995.3mb 59f 55f
12:50am 10ft 7s 6s 27 34 mph 995.1mb 59f 55f
Mon 09/26 11:50pm 11ft 8s 7s 27 31 mph 995.5mb 59f 55f
10:50pm 11ft 9s 7s 27 34 mph 996.1mb 59f 55f
9:50pm 12ft 10s 7s 27 34 mph 996.6mb 59f 55f
8:50pm 12.5ft 8s 7s 29 34 mph 997.2mb 59f 56f
7:50pm 10ft 8s 6s 29 36 mph 997.8mb 59f 56f
6:50pm 10.5ft 8s 6s 31 38 mph 997.9mb 59f 56f
5:50pm 10.5ft 8s 6s 31 38 mph 998.2mb 60f 56f
4:50pm 10ft 7s 6s 31 40 mph 998mb 60f 57f
3:50pm 9.5ft 7s 6s 29 36 mph 998mb 60f 57f
2:50pm 8ft 7s 6s 27 34 mph 997.8mb 61f 57f
1:50pm 7.5ft 7s 6s 27 31 mph 997.7mb 61f 57f
12:50pm 7ft 7s 5s 29 36 mph 997.8mb 61f 57f
11:50am 6.5ft 6s 5s 29 34 mph 997.9mb 61f 58f
10:50am 6.5ft 7s 5s 25 29 mph 998.8mb 61f 57f
9:50am 6.5ft 6s 5s 27 31 mph 999.3mb 61f 57f
8:50am 5ft 6s 5s 25 29 mph 1000mb 61f 58f
7:50am 5.5ft 6s 5s 20 25 mph 1000.7mb 61f 58f
6:50am 4.5ft 5s 4s 20 27 mph 1001.5mb 61f 56f
5:50am 3.5ft 5s 4s 18 20 mph 1001.9mb 62f 59f
4:50am 3.5ft 6s 5s 18 20 mph 1002.3mb 62f 60f
3:50am 4.5ft 6s 5s 11 18 mph 1002.8mb 61f 62f
2:50am 5ft 7s 5s 7
mph
1004mb 61f 62f
1:50am 6ft 7s 5s 4 7 mph 1004.6mb 62f 62f
12:50am 5ft 7s 5s 9 11 mph 1005.1mb 62f 63f
Sun 09/25 11:50pm 6ft 7s 5s 16 22 mph 1005.7mb 62f 62f
10:50pm 7ft 7s 6s 20 27 mph 1006.7mb 62f 62f
9:50pm 7ft 7s 6s 18 22 mph 1007.8mb 62f 60f
8:50pm 6.5ft 6s 5s 25 29 mph 1008.7mb 62f 60f
7:50pm 6.5ft 6s 5s 25 31 mph 1009.2mb 62f 60f
6:50pm 7ft 5s 5s 27 31 mph 1009mb 62f 60f
5:50pm 6ft 6s 5s 29 36 mph 1008.6mb 62f 62f
4:50pm 5.5ft 6s 5s 25 31 mph 1009.8mb 62f 62f
3:50pm 5ft 5s 4s 27 31 mph 1010.9mb 62f 63f
2:50pm 5.5ft 6s 5s 25 31 mph 1012mb 62f 63f
1:50pm 5ft 5s 4s 27 31 mph 1013.1mb 62f 62f
12:50pm 5ft 5s 4s 27 31 mph 1014.5mb 62f 61f
11:50am 4.5ft 6s 4s 22 27 mph 1015.4mb 62f 61f
10:50am 5ft 6s 5s 22 27 mph 1016mb 62f 61f
9:50am 5ft 6s 5s 22 27 mph 1017.1mb 62f 61f
8:50am 5ft 5s 5s 22 27 mph 1017.6mb 62f 61f
7:50am 4.5ft 6s 5s 22 27 mph 1017.9mb 62f 61f
6:50am 4ft 5s 4s 22 25 mph 1018.6mb 62f 62f